Time;durP1;ratioP1;P1;durP2;ratioP2;P2;SDS_P1;SDS_P2;PMS_P1;PMS_P2;Temp;Humidity;BMP_temperature;BMP_pressure;BME280_temperature;BME280_humidity;BME280_pressure;Samples;Min_cycle;Max_cycle;Signal;HPM_P1;HPM_P2
2023/01/03 00:00:12;;;;;;;10.32;4.08;;;;;;;11.21;100.00;100844.39;2913299;80;20970;-62
2023/01/03 00:04:21;;;;;;;9.55;5.85;;;;;;;11.04;100.00;100843.47;2880256;81;21010;-62
2023/01/03 00:08:22;;;;;;;3.87;3.55;;;;;;;10.93;100.00;100850.44;2915902;80;21005;-59
2023/01/03 00:12:23;;;;;;;7.67;4.70;;;;;;;10.92;100.00;100856.72;2884781;81;21001;-61
2023/01/03 00:16:24;;;;;;;5.28;4.62;;;;;;;11.00;100.00;100849.03;2849128;81;21033;-64
2023/01/03 00:20:25;;;;;;;6.30;5.35;;;;;;;11.07;100.00;100853.89;2858229;81;20977;-61
2023/01/03 00:24:26;;;;;;;8.73;6.40;;;;;;;11.10;100.00;100850.98;2918271;81;20984;-61
2023/01/03 00:28:38;;;;;;;13.35;8.73;;;;;;;11.08;100.00;100863.07;2827989;83;21066;-63
2023/01/03 00:32:40;;;;;;;11.40;7.40;;;;;;;11.03;100.00;100872.39;2784304;84;21050;-63
2023/01/03 00:36:41;;;;;;;9.85;7.58;;;;;;;10.91;100.00;100880.81;2810361;84;21083;-63
2023/01/03 00:40:42;;;;;;;12.65;7.62;;;;;;;10.95;100.00;100882.28;2852127;82;20995;-60
2023/01/03 00:44:43;;;;;;;11.78;7.42;;;;;;;10.81;100.00;100890.79;2820926;84;21071;-61
2023/01/03 00:48:47;;;;;;;8.30;6.30;;;;;;;10.81;100.00;100898.77;2872004;82;21030;-60
2023/01/03 00:52:48;;;;;;;9.20;6.83;;;;;;;10.84;100.00;100891.05;2813786;83;21057;-62
2023/01/03 00:56:51;;;;;;;11.73;6.35;;;;;;;10.87;100.00;100892.16;2870591;83;21082;-61
2023/01/03 01:00:56;;;;;;;9.23;6.00;;;;;;;10.85;100.00;100897.58;2841477;83;21058;-60
2023/01/03 01:04:57;;;;;;;8.73;6.23;;;;;;;10.81;100.00;100908.58;2823844;83;21094;-60
2023/01/03 01:09:02;;;;;;;9.10;6.58;;;;;;;10.83;100.00;100918.13;2792236;84;21295;-62
2023/01/03 01:13:03;;;;;;;7.22;4.97;;;;;;;10.81;100.00;100921.39;2840409;83;21014;-59
2023/01/03 01:17:07;;;;;;;5.87;4.83;;;;;;;10.83;100.00;100926.62;2824751;83;21026;-62
2023/01/03 01:21:13;;;;;;;13.95;4.55;;;;;;;10.91;100.00;100936.20;2862445;83;21078;-61
2023/01/03 01:25:14;;;;;;;8.43;6.12;;;;;;;10.95;100.00;100931.02;2869473;83;21014;-66
2023/01/03 01:29:16;;;;;;;6.53;4.70;;;;;;;10.99;100.00;100935.16;2871924;82;20920;-65
2023/01/03 01:33:18;;;;;;;6.50;4.53;;;;;;;10.97;100.00;100945.06;2855929;83;21489;-63
2023/01/03 01:37:19;;;;;;;8.95;4.50;;;;;;;10.98;100.00;100943.27;2871974;83;21599;-64
2023/01/03 01:46:11;;;;;;;4.72;3.65;;;;;;;10.97;100.00;100946.89;2823120;83;20979;-62
2023/01/03 01:50:48;;;;;;;4.60;4.08;;;;;;;10.91;100.00;100963.33;2851681;81;21039;-63
2023/01/03 01:54:52;;;;;;;12.82;6.92;;;;;;;10.95;100.00;100960.30;2825923;83;21257;-62
2023/01/03 01:58:55;;;;;;;6.62;4.55;;;;;;;11.07;100.00;100962.55;2823366;83;21042;-63
2023/01/03 02:02:56;;;;;;;11.78;3.35;;;;;;;11.02;100.00;100963.88;2859219;83;21079;-62
2023/01/03 02:07:00;;;;;;;5.00;3.72;;;;;;;11.02;100.00;100971.86;2837408;83;21074;-63
2023/01/03 02:11:19;;;;;;;3.27;2.98;;;;;;;10.97;100.00;100973.02;2865591;83;20996;-63
2023/01/03 02:16:15;;;;;;;2.98;2.67;;;;;;;10.94;100.00;100969.25;2829683;83;21089;-62
2023/01/03 02:20:37;;;;;;;3.37;3.08;;;;;;;10.89;100.00;100978.06;2851873;83;21031;-65
2023/01/03 02:25:05;;;;;;;3.65;2.75;;;;;;;10.81;100.00;100984.43;2674350;89;21758;-60
2023/01/03 02:29:27;;;;;;;3.80;3.30;;;;;;;10.70;100.00;100996.67;2618454;90;21009;-62
2023/01/03 02:33:36;;;;;;;4.05;3.22;;;;;;;10.65;100.00;100989.98;2613452;90;21041;-63
2023/01/03 02:37:52;;;;;;;4.40;3.27;;;;;;;10.55;100.00;101003.08;2663773;87;21011;-63
2023/01/03 02:46:33;;;;;;;3.42;2.80;;;;;;;10.42;100.00;100999.10;2672775;89;21049;-62
2023/01/03 02:50:45;;;;;;;2.75;2.40;;;;;;;10.35;100.00;101001.30;2672920;88;21086;-65
2023/01/03 02:55:07;;;;;;;2.98;2.30;;;;;;;10.32;100.00;101012.63;2676255;86;21086;-62
2023/01/03 02:59:13;;;;;;;5.85;2.98;;;;;;;10.24;100.00;101021.98;2704899;83;21058;-60
2023/01/03 03:03:19;;;;;;;2.70;2.30;;;;;;;10.17;100.00;101027.83;2894792;82;21054;-61
2023/01/03 03:07:28;;;;;;;5.37;3.58;;;;;;;10.09;100.00;101032.34;2904382;82;21018;-61
2023/01/03 03:16:12;;;;;;;4.65;3.37;;;;;;;9.91;100.00;101046.41;2900434;82;20960;-62
2023/01/03 03:24:51;;;;;;;2.55;2.33;;;;;;;9.67;100.00;101057.22;2882553;82;20993;-60
2023/01/03 03:29:02;;;;;;;2.87;2.40;;;;;;;9.63;100.00;101046.89;2903863;81;21020;-59
2023/01/03 03:33:06;;;;;;;2.08;1.87;;;;;;;9.60;100.00;101051.08;2861655;82;20988;-60
2023/01/03 03:37:17;;;;;;;2.25;1.92;;;;;;;9.45;100.00;101056.47;2858038;81;20983;-60
2023/01/03 03:46:21;;;;;;;3.12;2.27;;;;;;;9.41;100.00;101068.22;2738817;84;21051;-66
2023/01/03 03:50:42;;;;;;;3.67;2.77;;;;;;;9.31;100.00;101074.59;2793627;84;21688;-60
2023/01/03 03:54:51;;;;;;;5.60;3.77;;;;;;;9.23;100.00;101071.09;2824014;83;21074;-61
2023/01/03 03:58:58;;;;;;;3.50;2.12;;;;;;;9.06;100.00;101069.52;2841596;83;20986;-62
2023/01/03 04:03:00;;;;;;;;;;;;;;;8.98;100.00;101068.67;2863592;83;20987;-63
2023/01/03 04:07:02;;;;;;;3.22;2.33;;;;;;;9.03;100.00;101068.85;2815908;83;20127;-64
2023/01/03 04:11:17;;;;;;;4.33;3.83;;;;;;;9.10;100.00;101071.52;2850204;83;20987;-61
2023/01/03 04:15:19;;;;;;;3.02;2.52;;;;;;;9.18;100.00;101067.89;2818369;83;21094;-62
2023/01/03 04:19:22;;;;;;;2.42;1.85;;;;;;;9.24;100.00;101079.47;2828657;83;21074;-59
2023/01/03 04:23:24;;;;;;;5.03;2.83;;;;;;;9.36;100.00;101078.28;2832331;83;21110;-60
2023/01/03 04:27:25;;;;;;;3.30;2.80;;;;;;;9.44;100.00;101083.98;2792762;83;21097;-63
2023/01/03 04:31:26;;;;;;;3.37;2.60;;;;;;;9.46;100.00;101091.83;2861646;83;21030;-60
2023/01/03 04:35:27;;;;;;;4.30;2.12;;;;;;;9.51;100.00;101097.23;2861360;83;21031;-61
2023/01/03 04:39:28;;;;;;;3.75;2.22;;;;;;;9.64;100.00;101091.13;2861652;82;21109;-61
2023/01/03 04:47:56;;;;;;;2.92;2.17;;;;;;;9.74;100.00;101105.50;2904637;82;21015;-60
2023/01/03 04:51:57;;;;;;;2.92;2.02;;;;;;;9.77;100.00;101117.74;2904554;81;20915;-60
2023/01/03 04:55:59;;;;;;;4.78;2.08;;;;;;;9.76;100.00;101124.84;2904310;81;20967;-61
2023/01/03 05:00:00;;;;;;;3.47;2.60;;;;;;;9.76;100.00;101122.19;2897895;81;20978;-60
2023/01/03 05:04:02;;;;;;;4.50;3.10;;;;;;;9.84;100.00;101126.55;2901705;82;20979;-63
2023/01/03 05:08:09;;;;;;;3.75;2.05;;;;;;;9.84;100.00;101127.01;2851675;82;20943;-61
2023/01/03 05:12:11;;;;;;;3.33;2.10;;;;;;;9.76;100.00;101132.81;2898204;82;21208;-61
2023/01/03 05:16:15;;;;;;;3.90;2.60;;;;;;;9.80;100.00;101129.00;2904459;82;20912;-60
2023/01/03 05:29:03;;;;;;;4.03;3.60;;;;;;;9.86;100.00;101149.88;2902579;80;21014;-60
2023/01/03 05:33:04;;;;;;;5.00;2.87;;;;;;;9.84;100.00;101149.59;2780932;85;20996;-62
2023/01/03 05:37:05;;;;;;;4.28;3.72;;;;;;;9.91;100.00;101156.20;2804323;85;21025;-62
2023/01/03 05:41:06;;;;;;;3.35;3.05;;;;;;;9.86;100.00;101159.19;2852026;82;20992;-60
2023/01/03 05:45:09;;;;;;;6.55;4.40;;;;;;;9.85;100.00;101164.59;2781500;83;21522;-62
2023/01/03 05:49:16;;;;;;;5.17;4.67;;;;;;;9.80;100.00;101182.14;2744680;84;21298;-60
2023/01/03 05:53:17;;;;;;;4.37;3.70;;;;;;;9.91;100.00;101177.46;2743341;84;21020;-64
2023/01/03 05:57:38;;;;;;;6.00;4.15;;;;;;;9.86;100.00;101190.20;2893622;81;20979;-60
2023/01/03 06:01:39;;;;;;;4.97;4.15;;;;;;;9.91;100.00;101184.11;2885095;82;20991;-64
2023/01/03 06:05:41;;;;;;;5.12;3.45;;;;;;;9.96;100.00;101197.11;2821546;82;21044;-63
2023/01/03 06:09:42;;;;;;;4.45;2.98;;;;;;;9.91;100.00;101193.91;2775972;86;21152;-61
2023/01/03 06:13:55;;;;;;;8.30;4.25;;;;;;;9.83;100.00;101194.39;2731233;85;21044;-62
2023/01/03 06:18:01;;;;;;;4.58;4.03;;;;;;;9.78;100.00;101197.34;2834356;83;21050;-66
2023/01/03 06:22:23;;;;;;;5.95;4.05;;;;;;;9.79;100.00;101206.17;2836495;82;20992;-60
2023/01/03 06:26:25;;;;;;;6.05;5.00;;;;;;;9.81;100.00;101210.42;2834437;81;21020;-65
2023/01/03 06:30:27;;;;;;;4.33;3.45;;;;;;;9.74;100.00;101213.11;2825548;83;21025;-63
2023/01/03 06:34:29;;;;;;;4.80;3.58;;;;;;;9.72;100.00;101226.97;2846012;83;21020;-59
2023/01/03 06:38:32;;;;;;;5.05;3.90;;;;;;;9.71;100.00;101236.72;2867056;81;21017;-62
2023/01/03 06:42:43;;;;;;;6.87;4.12;;;;;;;9.73;100.00;101233.98;2863513;82;20973;-61
2023/01/03 06:55:30;;;;;;;7.20;5.17;;;;;;;9.78;100.00;101245.66;2719328;86;21084;-60
2023/01/03 06:59:32;;;;;;;7.95;5.45;;;;;;;9.68;100.00;101254.19;2729659;87;21019;-61
2023/01/03 07:03:33;;;;;;;6.85;5.65;;;;;;;9.69;100.00;101261.70;2735203;86;21060;-60
2023/01/03 07:07:50;;;;;;;5.20;4.30;;;;;;;9.68;100.00;101267.97;2735135;86;20985;-60
2023/01/03 07:11:52;;;;;;;4.70;3.80;;;;;;;9.64;100.00;101275.75;2713027;87;21268;-59
2023/01/03 07:15:53;;;;;;;6.22;5.40;;;;;;;9.61;100.00;101281.23;2735426;86;21174;-59
2023/01/03 07:19:54;;;;;;;7.37;5.28;;;;;;;9.59;100.00;101287.98;2727815;86;21042;-61
2023/01/03 07:23:57;;;;;;;5.92;4.28;;;;;;;9.58;100.00;101284.95;2738488;81;21028;-60
2023/01/03 07:28:12;;;;;;;8.78;5.83;;;;;;;9.53;100.00;101293.20;2818782;84;21009;-59
2023/01/03 07:32:14;;;;;;;7.58;4.83;;;;;;;9.49;100.00;101298.78;2797438;83;21057;-59
2023/01/03 07:36:16;;;;;;;7.45;5.33;;;;;;;9.45;100.00;101302.58;2758655;84;20980;-60
2023/01/03 07:40:18;;;;;;;9.03;4.58;;;;;;;9.35;100.00;101304.94;2814671;83;20972;-60
2023/01/03 07:44:19;;;;;;;5.00;4.50;;;;;;;9.32;100.00;101311.27;2806516;85;21055;-60
2023/01/03 07:48:20;;;;;;;8.55;4.70;;;;;;;9.28;100.00;101321.25;2782637;85;21009;-61
2023/01/03 07:52:59;;;;;;;6.65;5.03;;;;;;;9.32;100.00;101323.22;2821409;84;21961;-63
2023/01/03 07:57:00;;;;;;;7.00;5.08;;;;;;;9.31;100.00;101331.30;2805649;84;20957;-64
2023/01/03 08:01:14;;;;;;;8.20;5.60;;;;;;;9.41;100.00;101341.73;2814662;84;21000;-61
2023/01/03 08:05:16;;;;;;;6.80;5.70;;;;;;;9.44;100.00;101344.23;2814807;84;20976;-63
2023/01/03 08:13:36;;;;;;;8.35;6.12;;;;;;;9.48;100.00;101351.06;2783485;83;20996;-60
2023/01/03 08:18:01;;;;;;;7.10;5.50;;;;;;;9.48;100.00;101353.72;2890372;80;20968;-60
2023/01/03 08:22:02;;;;;;;11.53;4.30;;;;;;;9.48;100.00;101353.72;2881836;82;21006;-61
2023/01/03 08:26:08;;;;;;;7.62;5.87;;;;;;;9.43;100.00;101361.95;2883097;82;21036;-61
2023/01/03 08:30:11;;;;;;;6.65;4.45;;;;;;;9.46;100.00;101366.70;2796234;84;20964;-60
2023/01/03 08:34:13;;;;;;;6.65;5.08;;;;;;;9.34;100.00;101369.61;2865706;83;21127;-60
2023/01/03 08:38:20;;;;;;;9.68;5.53;;;;;;;9.46;100.00;101366.70;2802065;83;20974;-61
2023/01/03 08:42:22;;;;;;;6.15;5.40;;;;;;;9.58;100.00;101368.14;2811235;84;21078;-60
2023/01/03 08:46:23;;;;;;;8.33;6.10;;;;;;;9.72;100.00;101373.94;2767898;83;21325;-59
2023/01/03 08:50:25;;;;;;;6.00;4.95;;;;;;;9.96;100.00;101376.52;2767676;83;21072;-60
2023/01/03 08:54:27;;;;;;;8.20;5.08;;;;;;;10.18;100.00;101370.72;2849512;83;21012;-60
2023/01/03 08:58:28;;;;;;;7.87;3.95;;;;;;;10.26;100.00;101378.22;2784253;85;21049;-60
2023/01/03 09:02:35;;;;;;;5.00;4.50;;;;;;;10.35;100.00;101377.62;2843620;83;21005;-62
2023/01/03 09:06:37;;;;;;;6.78;4.72;;;;;;;10.28;97.71;101390.94;2851317;83;21052;-59
2023/01/03 09:10:39;;;;;;;5.97;4.47;;;;;;;10.21;97.01;101396.25;2838373;84;21023;-64
2023/01/03 09:14:40;;;;;;;5.90;4.72;;;;;;;10.04;97.61;101391.53;2816494;84;20997;-61
2023/01/03 09:18:42;;;;;;;8.80;4.05;;;;;;;10.05;100.00;101409.19;2807430;84;21046;-60
2023/01/03 09:22:43;;;;;;;7.65;4.80;;;;;;;9.99;100.00;101418.85;2798499;84;21106;-63
2023/01/03 09:27:09;;;;;;;5.00;4.35;;;;;;;10.06;100.00;101420.20;2838122;84;20964;-62
2023/01/03 09:31:28;;;;;;;8.18;4.97;;;;;;;10.09;100.00;101417.34;2781124;84;21665;-60
2023/01/03 09:35:30;;;;;;;8.85;5.45;;;;;;;10.19;100.00;101419.42;2802341;84;20941;-62
2023/01/03 09:39:31;;;;;;;9.45;6.80;;;;;;;10.27;100.00;101427.80;2837916;84;21035;-62
2023/01/03 09:43:39;;;;;;;8.43;4.37;;;;;;;10.37;100.00;101420.94;2860261;83;21274;-60
2023/01/03 10:05:41;;;;;;;4.45;3.85;;;;;;;10.50;94.33;101420.20;2750136;84;21123;-90
2023/01/03 10:10:14;;;;;;;6.75;4.40;;;;;;;10.54;94.28;101424.37;2771137;84;21032;-90
2023/01/03 10:14:29;;;;;;;5.15;4.45;;;;;;;10.49;94.04;101425.14;2795019;84;21056;-90
2023/01/03 10:18:44;;;;;;;6.33;4.37;;;;;;;10.39;93.43;101421.69;2756191;84;21059;-89
2023/01/03 10:22:47;;;;;;;6.17;4.53;;;;;;;10.28;92.85;101414.88;2810611;83;21039;-89
2023/01/03 10:26:57;;;;;;;5.80;3.65;;;;;;;10.14;92.73;101409.94;2806632;83;21071;-89
2023/01/03 10:31:27;;;;;;;8.95;4.62;;;;;;;10.04;92.90;101418.12;2847225;83;21634;-89
2023/01/03 10:35:32;;;;;;;3.50;3.22;;;;;;;9.93;94.25;101412.59;2749731;84;21788;-90
2023/01/03 10:39:33;;;;;;;5.40;4.45;;;;;;;10.03;93.06;101419.06;2807640;84;20999;-89
2023/01/03 10:43:45;;;;;;;7.87;5.17;;;;;;;10.14;90.87;101414.41;2743158;85;20996;-90
2023/01/03 10:48:00;;;;;;;5.58;4.72;;;;;;;10.23;89.95;101411.66;2794362;84;21066;-90
2023/01/03 10:52:19;;;;;;;4.58;3.85;;;;;;;10.13;88.58;101410.89;2853126;82;21542;-90
2023/01/03 10:56:21;;;;;;;6.08;4.42;;;;;;;10.00;88.68;101417.91;2803604;82;21084;-90
2023/01/03 11:00:31;;;;;;;5.20;3.70;;;;;;;9.78;87.29;101415.72;2845365;82;21073;-90
2023/01/03 11:04:33;;;;;;;6.17;4.97;;;;;;;9.80;88.37;101421.30;2800950;83;21058;-90
2023/01/03 11:08:44;;;;;;;6.08;4.62;;;;;;;9.76;87.71;101413.14;2825822;82;21075;-90
2023/01/03 11:12:48;;;;;;;5.78;4.87;;;;;;;9.79;89.74;101426.23;2820834;83;21033;-90
2023/01/03 11:17:04;;;;;;;5.08;4.28;;;;;;;9.77;89.93;101428.13;2803014;82;21066;-89
2023/01/03 11:21:24;;;;;;;;;;;;;;;9.79;90.20;101428.05;2820279;82;21104;-90
2023/01/03 11:25:46;;;;;;;8.85;4.85;;;;;;;9.84;90.04;101419.32;2829820;82;20160;-90
2023/01/03 11:30:08;;;;;;;4.12;3.47;;;;;;;10.01;90.94;101415.62;2834019;83;21046;-89
2023/01/03 11:34:30;;;;;;;7.55;4.75;;;;;;;9.97;89.08;101404.34;2822449;83;21074;-90
2023/01/03 11:39:03;;;;;;;6.95;5.30;;;;;;;10.04;90.28;101402.16;2842384;82;21590;-90
2023/01/03 11:43:50;;;;;;;5.65;4.00;;;;;;;10.01;89.32;101395.69;2784549;84;21050;-90
2023/01/03 11:48:09;;;;;;;6.28;4.40;;;;;;;9.91;88.28;101397.22;2650038;88;21126;-90
2023/01/03 11:52:27;;;;;;;7.30;4.87;;;;;;;9.89;89.49;101395.97;2649493;88;21103;-90
2023/01/03 11:56:36;;;;;;;7.50;4.70;;;;;;;9.99;89.72;101385.63;2647942;88;21074;-90
2023/01/03 12:01:19;;;;;;;5.20;4.70;;;;;;;10.06;86.59;101390.95;2640925;88;21107;-90
2023/01/03 12:05:46;;;;;;;5.08;4.58;;;;;;;10.33;85.50;101378.69;2670275;87;21113;-88
2023/01/03 12:10:04;;;;;;;3.77;3.37;;;;;;;10.57;85.27;101386.45;2634443;88;21083;-90
2023/01/03 12:14:22;;;;;;;7.85;4.83;;;;;;;10.60;82.19;101384.55;2681695;88;21067;-90
2023/01/03 12:18:49;;;;;;;4.47;3.60;;;;;;;10.50;83.47;101381.63;2679080;87;21067;-90
2023/01/03 12:23:02;;;;;;;6.25;4.78;;;;;;;10.38;85.32;101385.89;2699804;83;21046;-90
2023/01/03 12:27:11;;;;;;;6.70;5.67;;;;;;;9.99;84.93;101398.45;2847121;82;21062;-90
2023/01/03 12:31:33;;;;;;;5.58;3.83;;;;;;;9.78;85.28;101398.45;2805337;83;21095;-90
2023/01/03 12:36:15;;;;;;;5.08;4.42;;;;;;;9.67;87.69;101396.44;2840425;82;21611;-90
2023/01/03 12:40:27;;;;;;;5.78;4.00;;;;;;;9.56;87.21;101399.25;2833809;82;21039;-90
2023/01/03 12:44:42;;;;;;;5.30;4.00;;;;;;;9.60;87.32;101383.13;2842522;82;21004;-90
2023/01/03 12:49:13;;;;;;;4.65;4.28;;;;;;;9.45;88.73;101391.09;2790101;84;21094;-90
2023/01/03 12:53:40;;;;;;;6.50;4.65;;;;;;;9.48;89.02;101381.61;2861031;82;21619;-90
2023/01/03 12:57:47;;;;;;;7.08;5.55;;;;;;;9.21;91.40;101384.93;2830077;83;21088;-89
2023/01/03 13:01:59;;;;;;;10.98;5.33;;;;;;;9.00;92.39;101378.60;2822533;82;21024;-90
2023/01/03 13:06:18;;;;;;;6.15;5.53;;;;;;;8.97;93.42;101371.31;2830341;82;21056;-90
2023/01/03 13:10:22;;;;;;;12.53;5.40;;;;;;;8.91;93.58;101377.82;2811078;83;21024;-89
2023/01/03 13:14:27;;;;;;;7.05;5.45;;;;;;;8.88;95.30;101374.48;2814376;82;21032;-89
2023/01/03 13:18:33;;;;;;;6.97;5.45;;;;;;;8.90;96.85;101373.45;2811947;82;21035;-89
2023/01/03 13:22:48;;;;;;;9.98;7.00;;;;;;;9.14;96.71;101363.68;2818696;82;21043;-89
2023/01/03 13:27:18;;;;;;;8.60;6.25;;;;;;;9.35;96.34;101368.20;2830880;83;21137;-89
2023/01/03 13:31:32;;;;;;;7.90;6.55;;;;;;;9.55;94.54;101372.80;2821108;83;21002;-89
2023/01/03 13:35:45;;;;;;;7.85;5.75;;;;;;;9.74;92.97;101370.36;2813484;82;21034;-89
2023/01/03 13:40:03;;;;;;;38.92;22.60;;;;;;;9.86;92.09;101370.91;2809024;83;21571;-89
2023/01/03 13:44:18;;;;;;;31.73;22.15;;;;;;;10.02;91.55;101369.48;2730851;85;21102;-89
2023/01/03 13:48:27;;;;;;;14.15;9.20;;;;;;;10.20;90.92;101371.48;2732127;85;21139;-89
2023/01/03 13:52:39;;;;;;;9.20;7.20;;;;;;;10.35;89.78;101378.95;2754028;84;21594;-89
2023/01/03 13:56:52;;;;;;;11.03;6.72;;;;;;;10.42;90.25;101381.66;2711443;84;39312;-89
2023/01/03 14:01:01;;;;;;;7.55;5.30;;;;;;;10.33;88.72;101382.19;2770969;84;21114;-88
2023/01/03 14:05:26;;;;;;;36.35;22.35;;;;;;;10.20;86.20;101385.23;2767416;84;21066;-89
2023/01/03 14:10:09;;;;;;;39.23;24.18;;;;;;;10.20;85.81;101394.08;2688032;86;21569;-89
2023/01/03 14:14:14;;;;;;;5.65;4.45;;;;;;;10.17;84.24;101402.72;2772873;84;21053;-89
2023/01/03 14:18:26;;;;;;;6.53;4.10;;;;;;;10.18;88.35;101409.73;2718764;84;21040;-89
2023/01/03 14:22:40;;;;;;;4.97;4.30;;;;;;;10.11;90.50;101415.45;2805307;82;21044;-89
2023/01/03 14:26:41;;;;;;;4.17;3.60;;;;;;;10.09;90.33;101413.36;2828102;82;21038;-88
2023/01/03 14:30:43;;;;;;;8.33;5.00;;;;;;;9.90;89.64;101427.41;2795955;83;21083;-91
2023/01/03 14:34:45;;;;;;;6.67;3.52;;;;;;;9.74;88.92;101429.66;2772514;84;21097;-92
2023/01/03 14:38:57;;;;;;;6.87;3.95;;;;;;;9.55;88.55;101432.08;2801418;82;21035;-91
2023/01/03 14:43:03;;;;;;;9.68;5.25;;;;;;;9.47;88.00;101432.15;2830112;82;21035;-91
2023/01/03 14:47:08;;;;;;;;;;;;;;;9.34;87.78;101434.22;2829682;82;21071;-92
2023/01/03 14:51:10;;;;;;;12.30;7.33;;;;;;;9.24;87.76;101433.02;2860191;82;20114;-91
2023/01/03 14:55:17;;;;;;;11.55;5.20;;;;;;;9.12;88.05;101436.75;2842500;82;21018;-91
2023/01/03 14:59:22;;;;;;;6.50;5.90;;;;;;;9.02;88.96;101437.37;2837299;82;21041;-92
2023/01/03 15:03:24;;;;;;;12.13;7.53;;;;;;;8.99;89.57;101429.97;2814191;83;21570;-90
2023/01/03 15:07:42;;;;;;;5.85;4.42;;;;;;;8.94;89.86;101436.02;2841333;82;21097;-90
2023/01/03 15:11:58;;;;;;;;;;;;;;;8.94;92.16;101444.44;2832127;82;21558;-90
2023/01/03 15:16:01;;;;;;;;;;;;;;;8.86;93.42;101451.53;2829231;82;20140;-91
2023/01/03 15:20:06;;;;;;;4.12;3.55;;;;;;;8.67;94.50;101448.58;2839079;81;20211;-92
2023/01/03 15:24:17;;;;;;;7.72;4.08;;;;;;;8.25;94.30;101460.52;2837027;81;21028;-93
2023/01/03 15:28:30;;;;;;;6.90;5.20;;;;;;;7.97;95.74;101465.96;2836956;81;21019;-89
2023/01/03 15:32:45;;;;;;;9.20;5.97;;;;;;;7.65;97.44;101468.00;2835570;81;21230;-90
2023/01/03 15:37:11;;;;;;;13.08;8.98;;;;;;;7.41;97.90;101462.14;2808710;81;21012;-93
2023/01/03 15:46:04;;;;;;;12.50;9.55;;;;;;;7.22;98.46;101474.95;2797999;81;21057;-90
2023/01/03 15:50:20;;;;;;;12.60;8.75;;;;;;;7.25;98.28;101475.28;2813953;81;21603;-91
2023/01/03 15:54:21;;;;;;;12.70;9.25;;;;;;;7.28;98.29;101481.30;2794309;83;21662;-89
2023/01/03 15:58:28;;;;;;;10.58;8.85;;;;;;;7.44;97.38;101480.52;2835550;82;21555;-90
2023/01/03 16:02:32;;;;;;;13.93;10.48;;;;;;;7.60;96.19;101495.65;2829051;82;21067;-90
2023/01/03 16:06:33;;;;;;;14.78;9.83;;;;;;;7.73;94.39;101487.48;2807091;83;21138;-90
2023/01/03 16:10:39;;;;;;;14.20;8.63;;;;;;;7.79;92.41;101489.81;2819554;82;21055;-89
2023/01/03 16:14:43;;;;;;;15.50;9.73;;;;;;;7.84;91.69;101494.40;2829548;81;21050;-90
2023/01/03 16:18:45;;;;;;;17.73;11.97;;;;;;;7.82;90.29;101496.76;2782565;82;21601;-90
2023/01/03 16:22:55;;;;;;;26.73;19.00;;;;;;;7.81;90.17;101499.86;2805479;81;20972;-89
2023/01/03 16:26:57;;;;;;;17.60;11.08;;;;;;;7.78;90.57;101505.80;2784730;82;21000;-88
2023/01/03 16:31:13;;;;;;;14.23;12.50;;;;;;;7.80;91.02;101499.47;2786628;83;21061;-90
2023/01/03 16:35:19;;;;;;;20.45;11.40;;;;;;;7.69;89.84;101495.20;2795439;83;21102;-89
2023/01/03 16:39:27;;;;;;;16.75;10.08;;;;;;;7.60;89.44;101495.20;2802299;83;20969;-89
2023/01/03 16:43:29;;;;;;;17.00;12.47;;;;;;;7.56;89.83;101500.23;2792214;83;21079;-90
2023/01/03 16:51:42;;;;;;;15.93;9.53;;;;;;;7.52;88.74;101496.90;2822152;82;21622;-88
2023/01/03 16:55:43;;;;;;;15.55;10.75;;;;;;;7.42;88.23;101499.59;2839482;82;20965;-88
2023/01/03 16:59:46;;;;;;;18.77;12.28;;;;;;;7.37;88.20;101498.97;2830867;81;20980;-87
2023/01/03 17:03:47;;;;;;;16.97;11.78;;;;;;;7.34;88.37;101503.09;2837100;82;21739;-88
2023/01/03 17:07:52;;;;;;;17.85;15.13;;;;;;;7.22;88.30;101502.75;2816379;82;21035;-88
2023/01/03 17:11:53;;;;;;;14.95;10.82;;;;;;;7.15;88.57;101510.12;2741461;84;21035;-87
2023/01/03 17:15:55;;;;;;;14.85;12.37;;;;;;;7.13;88.74;101508.50;2808768;84;21051;-88
2023/01/03 17:19:56;;;;;;;25.72;19.75;;;;;;;7.10;89.39;101512.14;2816746;82;20966;-88
2023/01/03 17:24:09;;;;;;;40.50;28.45;;;;;;;7.08;89.69;101515.80;2807614;83;21050;-88
2023/01/03 17:28:10;;;;;;;51.02;32.13;;;;;;;6.85;90.12;101511.11;2757623;85;21071;-88
2023/01/03 17:32:19;;;;;;;72.80;48.28;;;;;;;6.64;92.74;101511.65;2806979;83;21604;-87
2023/01/03 17:36:30;;;;;;;96.75;66.97;;;;;;;6.54;93.26;101524.43;2810108;82;21023;-88
2023/01/03 17:40:32;;;;;;;101.87;68.28;;;;;;;6.64;94.36;101527.03;2764892;84;22208;-88
2023/01/03 17:44:33;;;;;;;99.80;66.57;;;;;;;6.67;94.19;101527.37;2823520;82;21027;-87
2023/01/03 17:52:53;;;;;;;78.52;56.13;;;;;;;6.47;94.41;101538.37;2818171;82;21068;-86
2023/01/03 17:56:58;;;;;;;72.72;52.17;;;;;;;6.45;94.58;101547.30;2803259;82;21017;-85
2023/01/03 18:01:00;;;;;;;78.07;50.55;;;;;;;6.55;94.77;101552.58;2786087;83;20999;-86
2023/01/03 18:05:01;;;;;;;75.87;56.10;;;;;;;6.68;94.74;101550.23;2716450;83;21003;-86
2023/01/03 18:09:09;;;;;;;65.80;44.58;;;;;;;6.82;94.76;101550.48;2794627;83;21085;-85
2023/01/03 18:13:27;;;;;;;61.58;41.75;;;;;;;6.83;92.95;101542.94;2823932;82;20996;-86
2023/01/03 18:17:32;;;;;;;57.48;39.73;;;;;;;6.69;92.05;101552.83;2796072;83;21422;-86
2023/01/03 18:21:34;;;;;;;68.75;43.63;;;;;;;6.53;91.86;101553.95;2792832;83;21095;-85
2023/01/03 18:25:36;;;;;;;60.28;38.15;;;;;;;6.45;91.55;101553.90;2780594;83;21071;-85
2023/01/03 18:29:38;;;;;;;49.98;35.48;;;;;;;6.34;91.14;101553.92;2768839;84;21051;-85
2023/01/03 18:33:39;;;;;;;45.85;29.37;;;;;;;6.28;91.24;101556.37;2780125;84;21574;-85
2023/01/03 18:37:40;;;;;;;45.12;30.17;;;;;;;6.28;91.08;101551.53;2786576;83;21075;-85
2023/01/03 18:41:42;;;;;;;33.53;25.75;;;;;;;6.29;90.04;101556.77;2808187;83;21661;-85
2023/01/03 18:45:44;;;;;;;31.33;21.20;;;;;;;6.27;89.20;101561.26;2797013;83;21566;-85
2023/01/03 18:49:45;;;;;;;30.08;23.87;;;;;;;6.20;88.92;101557.62;2823801;81;20977;-85
2023/01/03 18:53:51;;;;;;;36.68;19.42;;;;;;;6.19;88.91;101561.19;2822635;83;20986;-85
2023/01/03 18:57:53;;;;;;;25.32;17.48;;;;;;;6.16;88.47;101558.69;2817377;83;21061;-86
2023/01/03 19:01:54;;;;;;;27.80;17.45;;;;;;;6.09;88.12;101562.05;2826449;82;21086;-85
2023/01/03 19:05:59;;;;;;;22.87;16.45;;;;;;;6.01;88.17;101557.09;2778097;83;21103;-85
2023/01/03 19:10:04;;;;;;;22.75;15.55;;;;;;;5.83;88.66;101562.18;2828932;82;21500;-88
2023/01/03 19:14:06;;;;;;;24.25;17.27;;;;;;;5.68;88.89;101565.45;2842611;82;21562;-87
2023/01/03 19:18:08;;;;;;;22.17;17.55;;;;;;;5.48;89.61;101563.16;2790639;83;21027;-87
2023/01/03 19:22:32;;;;;;;32.67;19.98;;;;;;;5.47;90.64;101571.98;2836294;82;21034;-86
2023/01/03 19:26:43;;;;;;;31.68;19.65;;;;;;;5.49;90.46;101566.19;2802679;83;21043;-87
2023/01/03 19:30:45;;;;;;;30.27;20.00;;;;;;;5.47;89.20;101575.95;2836832;82;21114;-88
2023/01/03 19:34:47;;;;;;;30.90;21.55;;;;;;;5.46;89.64;101572.91;2888289;80;20944;-88
2023/01/03 19:38:48;;;;;;;28.60;22.13;;;;;;;5.41;89.73;101563.01;2894127;80;21078;-87
2023/01/03 19:42:55;;;;;;;33.42;22.52;;;;;;;5.39;89.40;101570.13;2899552;80;21039;-87
2023/01/03 19:46:55;;;;;;;;;;;;;;;5.42;88.69;101580.11;2890893;80;21498;-88
2023/01/03 19:50:57;;;;;;;31.80;22.30;;;;;;;5.38;87.77;101575.01;2859847;80;20150;-87
2023/01/03 19:54:58;;;;;;;27.15;21.15;;;;;;;5.29;87.96;101586.78;2806027;82;21003;-87
2023/01/03 19:58:59;;;;;;;28.55;18.52;;;;;;;5.21;88.11;101583.12;2817917;82;21005;-88
2023/01/03 20:03:06;;;;;;;21.00;15.95;;;;;;;5.14;87.72;101586.45;2820377;81;20972;-89
2023/01/03 20:07:14;;;;;;;33.78;21.05;;;;;;;5.12;87.61;101576.89;2820838;82;21157;-86
2023/01/03 20:11:21;;;;;;;33.02;20.52;;;;;;;5.04;87.65;101580.27;2802820;82;21035;-88
2023/01/03 20:15:31;;;;;;;31.10;19.85;;;;;;;4.99;87.57;101579.98;2825585;82;20987;-88
2023/01/03 20:19:32;;;;;;;29.07;22.02;;;;;;;4.95;87.79;101578.83;2812305;81;21594;-87
2023/01/03 20:23:43;;;;;;;27.70;21.15;;;;;;;4.96;88.35;101581.42;2779921;83;21574;-87
2023/01/03 20:27:45;;;;;;;40.55;25.72;;;;;;;4.96;88.44;101583.19;2814631;82;21078;-86
2023/01/03 20:31:47;;;;;;;41.48;26.97;;;;;;;4.96;88.33;101574.83;2823280;82;21029;-86